createdAt,value
2017-07-11T00:00:11.970Z,0
2017-07-11T00:01:12.002Z,0
2017-07-11T00:02:11.519Z,0
2017-07-11T00:03:12.219Z,0
2017-07-11T00:04:13.236Z,0
2017-07-11T00:05:13.024Z,0
2017-07-11T00:06:12.356Z,0
2017-07-11T00:07:11.639Z,0
2017-07-11T00:08:11.535Z,0
2017-07-11T00:09:12.289Z,0
2017-07-11T00:10:11.615Z,0
2017-07-11T00:11:12.082Z,0
2017-07-11T00:12:12.950Z,0
2017-07-11T00:13:12.355Z,0
2017-07-11T00:14:11.599Z,0
2017-07-11T00:15:11.604Z,0
2017-07-11T00:16:11.893Z,0
2017-07-11T00:17:11.881Z,0
2017-07-11T00:18:12.014Z,0
2017-07-11T00:19:12.088Z,0
2017-07-11T00:20:12.234Z,0
2017-07-11T00:21:11.816Z,0
2017-07-11T00:22:11.568Z,0
2017-07-11T00:23:11.535Z,0
2017-07-11T00:24:13.157Z,0
2017-07-11T00:25:12.367Z,0
2017-07-11T00:26:11.169Z,0
2017-07-11T00:27:11.642Z,0
2017-07-11T00:28:11.629Z,0
2017-07-11T00:29:11.944Z,0
2017-07-11T00:30:12.048Z,0
2017-07-11T00:31:12.484Z,0
2017-07-11T00:32:11.801Z,0
2017-07-11T00:33:11.787Z,0
2017-07-11T00:34:11.851Z,0
2017-07-11T00:35:11.806Z,0
2017-07-11T00:36:13.048Z,0
2017-07-11T00:37:11.568Z,0
2017-07-11T00:38:11.835Z,0
2017-07-11T00:39:11.548Z,0
2017-07-11T00:40:11.161Z,0
2017-07-11T00:41:12.205Z,0
2017-07-11T00:42:11.556Z,0
2017-07-11T00:43:11.826Z,0
2017-07-11T00:44:11.448Z,0
2017-07-11T00:45:11.798Z,0
2017-07-11T00:46:11.181Z,0
2017-07-11T00:47:11.427Z,0
2017-07-11T00:48:11.831Z,0
2017-07-11T00:49:11.963Z,0
2017-07-11T00:50:12.920Z,0
2017-07-11T00:51:12.222Z,0
2017-07-11T00:52:11.054Z,0
2017-07-11T00:53:11.429Z,0
2017-07-11T00:54:11.428Z,0
2017-07-11T00:55:11.946Z,0
2017-07-11T00:56:12.579Z,0
2017-07-11T00:57:11.845Z,0
2017-07-11T00:58:11.488Z,0
2017-07-11T00:59:12.577Z,0
2017-07-11T01:00:11.426Z,0
2017-07-11T01:01:11.859Z,0
2017-07-11T01:02:11.512Z,0
2017-07-11T01:03:11.193Z,0
2017-07-11T01:04:12.867Z,0
2017-07-11T01:05:12.433Z,0
2017-07-11T01:06:11.895Z,0
2017-07-11T01:07:11.222Z,0
2017-07-11T01:08:12.222Z,0
2017-07-11T01:09:12.214Z,0
2017-07-11T01:10:11.745Z,0
2017-07-11T01:11:11.794Z,0
2017-07-11T01:12:11.494Z,0
2017-07-11T01:13:11.323Z,0
2017-07-11T01:14:12.505Z,0
2017-07-11T01:15:11.315Z,0
2017-07-11T01:16:11.725Z,0
2017-07-11T01:17:11.713Z,0
2017-07-11T01:18:11.221Z,0
2017-07-11T01:19:13.394Z,0
2017-07-11T01:20:12.050Z,0
2017-07-11T01:21:11.317Z,0
2017-07-11T01:22:11.005Z,0
2017-07-11T01:23:13.200Z,0
2017-07-11T01:24:12.495Z,0
2017-07-11T01:25:11.053Z,0
2017-07-11T01:26:11.514Z,0
2017-07-11T01:27:11.289Z,0
2017-07-11T01:28:11.102Z,0
2017-07-11T01:29:12.977Z,0
2017-07-11T01:30:11.537Z,0
2017-07-11T01:31:11.058Z,0
2017-07-11T01:32:12.672Z,0
2017-07-11T01:33:11.382Z,0
2017-07-11T01:34:12.030Z,0
2017-07-11T01:35:11.041Z,0
2017-07-11T01:36:10.976Z,0
2017-07-11T01:37:11.374Z,0
2017-07-11T01:38:11.736Z,0
2017-07-11T01:39:10.925Z,0
2017-07-11T01:40:11.327Z,0
2017-07-11T01:41:11.586Z,0
2017-07-11T01:42:12.468Z,0
2017-07-11T01:43:12.337Z,0
2017-07-11T01:44:11.580Z,0
2017-07-11T01:45:11.735Z,0
2017-07-11T01:46:10.902Z,0
2017-07-11T01:47:11.551Z,0
2017-07-11T01:48:12.538Z,0
2017-07-11T01:49:12.776Z,0
2017-07-11T01:50:11.255Z,0
2017-07-11T01:51:11.183Z,0
2017-07-11T01:52:12.789Z,0
2017-07-11T01:53:11.517Z,0
2017-07-11T01:54:11.521Z,0
2017-07-11T01:55:11.668Z,0
2017-07-11T01:56:11.691Z,0
2017-07-11T01:57:11.212Z,0
2017-07-11T01:58:11.580Z,0
2017-07-11T01:59:11.831Z,0
2017-07-11T02:00:11.989Z,0
2017-07-11T02:01:10.827Z,0
2017-07-11T02:02:11.256Z,0
2017-07-11T02:03:11.200Z,0
2017-07-11T02:04:11.553Z,0
2017-07-11T02:05:12.339Z,0
2017-07-11T02:06:11.836Z,0
2017-07-11T02:07:11.648Z,0
2017-07-11T02:08:11.576Z,0
2017-07-11T02:09:11.258Z,0
2017-07-11T02:10:11.501Z,0
2017-07-11T02:11:12.102Z,0
2017-07-11T02:12:11.753Z,0
2017-07-11T02:13:10.844Z,0
2017-07-11T02:14:11.856Z,0
2017-07-11T02:15:11.555Z,0
2017-07-11T02:16:10.917Z,0
2017-07-11T02:17:12.417Z,0
2017-07-11T02:18:11.622Z,0
2017-07-11T02:19:12.557Z,0
2017-07-11T02:20:11.162Z,0
2017-07-11T02:21:11.151Z,0
2017-07-11T02:22:10.851Z,0
2017-07-11T02:23:10.998Z,0
2017-07-11T02:24:12.582Z,0
2017-07-11T02:25:11.732Z,0
2017-07-11T02:26:11.886Z,0
2017-07-11T02:27:11.687Z,0
2017-07-11T02:28:12.906Z,0
2017-07-11T02:29:12.016Z,0
2017-07-11T02:30:11.108Z,0
2017-07-11T02:31:12.002Z,0
2017-07-11T02:32:11.976Z,0
2017-07-11T02:33:10.658Z,0
2017-07-11T02:34:11.312Z,0
2017-07-11T02:35:11.753Z,0
2017-07-11T02:36:11.349Z,0
2017-07-11T02:37:11.252Z,0
2017-07-11T02:38:11.427Z,0
2017-07-11T02:39:11.267Z,0
2017-07-11T02:40:11.091Z,0
2017-07-11T02:41:10.972Z,0
2017-07-11T02:42:10.636Z,0
2017-07-11T02:43:10.625Z,0
2017-07-11T02:44:11.286Z,0
2017-07-11T02:45:10.961Z,0
2017-07-11T02:46:10.618Z,0
2017-07-11T02:47:10.946Z,0
2017-07-11T02:48:11.298Z,0
2017-07-11T02:49:11.745Z,0
2017-07-11T02:50:11.020Z,0
2017-07-11T02:51:11.362Z,0
2017-07-11T02:52:11.317Z,0
2017-07-11T02:53:10.764Z,0
2017-07-11T02:54:11.014Z,0
2017-07-11T02:55:11.041Z,0
2017-07-11T02:56:10.952Z,0
2017-07-11T02:57:11.088Z,0
2017-07-11T02:58:11.038Z,0
2017-07-11T02:59:10.981Z,0
2017-07-11T03:00:11.339Z,0
2017-07-11T03:01:10.915Z,0
2017-07-11T03:02:10.572Z,0
2017-07-11T03:03:10.972Z,0
2017-07-11T03:04:10.988Z,0
2017-07-11T03:05:10.656Z,0
2017-07-11T03:06:11.352Z,0
2017-07-11T03:07:10.991Z,0
2017-07-11T03:08:10.656Z,0
2017-07-11T03:09:10.994Z,0
2017-07-11T03:10:11.006Z,0
2017-07-11T03:11:11.341Z,0
2017-07-11T03:12:10.987Z,0
2017-07-11T03:13:11.621Z,0
2017-07-11T03:14:10.674Z,0
2017-07-11T03:15:11.148Z,0
2017-07-11T03:16:10.963Z,0
2017-07-11T03:17:11.195Z,0
2017-07-11T03:18:10.726Z,0
2017-07-11T03:19:11.574Z,0
2017-07-11T03:20:11.415Z,5
2017-07-11T03:21:10.988Z,5
2017-07-11T03:22:10.997Z,5
2017-07-11T03:23:10.979Z,5
2017-07-11T03:24:11.602Z,5
2017-07-11T03:25:10.967Z,5
2017-07-11T03:26:10.591Z,5
2017-07-11T03:27:10.980Z,5
2017-07-11T03:28:10.890Z,5
2017-07-11T03:29:10.577Z,5
2017-07-11T03:30:10.595Z,5
2017-07-11T03:31:11.353Z,10
2017-07-11T03:32:10.829Z,10
2017-07-11T03:33:10.924Z,10
2017-07-11T03:34:10.968Z,10
2017-07-11T03:35:11.152Z,10
2017-07-11T03:36:11.282Z,10
2017-07-11T03:37:10.555Z,10
2017-07-11T03:38:11.638Z,10
2017-07-11T03:39:11.680Z,10
2017-07-11T03:40:10.999Z,10
2017-07-11T03:41:10.930Z,10
2017-07-11T03:42:11.295Z,10
2017-07-11T03:43:10.977Z,10
2017-07-11T03:44:10.784Z,10
2017-07-11T03:45:10.637Z,10
2017-07-11T03:46:11.320Z,10
2017-07-11T03:47:11.302Z,10
2017-07-11T03:48:10.951Z,10
2017-07-11T03:49:11.033Z,10
2017-07-11T03:50:10.519Z,10
2017-07-11T03:51:11.360Z,10
2017-07-11T03:52:11.162Z,10
2017-07-11T03:53:11.546Z,10
2017-07-11T03:54:10.863Z,10
2017-07-11T03:55:10.576Z,10
2017-07-11T03:56:11.463Z,10
2017-07-11T03:57:11.188Z,15
2017-07-11T03:58:10.501Z,15
2017-07-11T03:59:10.511Z,15
2017-07-11T04:00:11.571Z,15
2017-07-11T04:01:10.846Z,15
2017-07-11T04:02:10.801Z,15
2017-07-11T04:03:10.527Z,15
2017-07-11T04:04:11.692Z,15
2017-07-11T04:05:11.545Z,20
2017-07-11T04:06:10.534Z,20
2017-07-11T04:07:10.875Z,20
2017-07-11T04:08:10.856Z,20
2017-07-11T04:09:11.152Z,20
2017-07-11T04:10:11.193Z,20
2017-07-11T04:11:11.680Z,20
2017-07-11T04:12:10.834Z,20
2017-07-11T04:13:11.220Z,20
2017-07-11T04:14:10.849Z,20
2017-07-11T04:15:10.440Z,25
2017-07-11T04:16:10.539Z,25
2017-07-11T04:17:10.826Z,25
2017-07-11T04:18:10.432Z,25
2017-07-11T04:19:10.795Z,25
2017-07-11T04:20:11.169Z,30
2017-07-11T04:21:11.105Z,30
2017-07-11T04:22:11.848Z,30
2017-07-11T04:23:10.778Z,30
2017-07-11T04:24:10.738Z,30
2017-07-11T04:25:11.110Z,35
2017-07-11T04:26:11.423Z,35
2017-07-11T04:27:10.753Z,35
2017-07-11T04:28:11.120Z,35
2017-07-11T04:29:10.789Z,35
2017-07-11T04:30:10.433Z,40
2017-07-11T04:31:11.065Z,40
2017-07-11T04:32:10.761Z,40
2017-07-11T04:33:10.793Z,40
2017-07-11T04:34:10.749Z,40
2017-07-11T04:35:11.409Z,40
2017-07-11T04:36:10.433Z,40
2017-07-11T04:37:11.192Z,40
2017-07-11T04:38:11.346Z,40
2017-07-11T04:39:11.083Z,40
2017-07-11T04:40:11.117Z,45
2017-07-11T04:41:11.392Z,45
2017-07-11T04:42:11.402Z,50
2017-07-11T04:43:10.988Z,50
2017-07-11T04:44:10.382Z,50
2017-07-11T04:45:10.687Z,50
2017-07-11T04:46:10.326Z,55
2017-07-11T04:47:11.009Z,55
2017-07-11T04:48:10.491Z,55
2017-07-11T04:49:11.116Z,55
2017-07-11T04:50:10.652Z,55
2017-07-11T04:51:10.621Z,55
2017-07-11T04:52:10.317Z,60
2017-07-11T04:53:11.100Z,60
2017-07-11T04:54:10.769Z,60
2017-07-11T04:55:11.406Z,60
2017-07-11T04:56:11.088Z,60
2017-07-11T04:57:11.066Z,60
2017-07-11T04:58:11.057Z,65
2017-07-11T04:59:10.711Z,65
2017-07-11T05:00:11.020Z,65
2017-07-11T05:01:10.338Z,65
2017-07-11T05:02:10.951Z,65
2017-07-11T05:03:10.311Z,60
2017-07-11T05:04:10.715Z,65
2017-07-11T05:05:10.386Z,60
2017-07-11T05:06:10.278Z,65
2017-07-11T05:07:11.340Z,65
2017-07-11T05:08:11.368Z,65
2017-07-11T05:09:10.383Z,65
2017-07-11T05:10:10.641Z,65
2017-07-11T05:11:10.662Z,60
2017-07-11T05:12:10.624Z,60
2017-07-11T05:13:11.335Z,60
2017-07-11T05:14:10.907Z,60
2017-07-11T05:15:10.338Z,60
2017-07-11T05:16:10.945Z,60
2017-07-11T05:17:10.673Z,55
2017-07-11T05:18:11.032Z,55
2017-07-11T05:19:10.999Z,55
2017-07-11T05:20:10.623Z,55
2017-07-11T05:21:10.302Z,55
2017-07-11T05:22:11.006Z,55
2017-07-11T05:23:10.378Z,55
2017-07-11T05:24:11.322Z,55
2017-07-11T05:25:10.979Z,60
2017-07-11T05:26:10.715Z,60
2017-07-11T05:27:10.673Z,60
2017-07-11T05:28:10.265Z,60
2017-07-11T05:29:10.507Z,60
2017-07-11T05:30:10.953Z,60
2017-07-11T05:31:10.639Z,60
2017-07-11T05:32:10.621Z,60
2017-07-11T05:33:11.201Z,60
2017-07-11T05:34:10.621Z,60
2017-07-11T05:35:11.259Z,65
2017-07-11T05:36:10.537Z,70
2017-07-11T05:37:10.901Z,75
2017-07-11T05:38:10.510Z,75
2017-07-11T05:39:10.874Z,75
2017-07-11T05:40:10.596Z,65
2017-07-11T05:41:10.242Z,65
2017-07-11T05:42:10.487Z,70
2017-07-11T05:43:10.281Z,80
2017-07-11T05:44:10.615Z,75
2017-07-11T05:45:11.439Z,70
2017-07-11T05:46:11.022Z,65
2017-07-11T05:47:10.179Z,65
2017-07-11T05:48:10.523Z,60
2017-07-11T05:49:10.399Z,60
2017-07-11T05:50:11.150Z,60
2017-07-11T05:51:10.563Z,60
2017-07-11T05:52:10.536Z,65
2017-07-11T05:53:10.192Z,70
2017-07-11T05:54:10.534Z,70
2017-07-11T05:55:10.458Z,75
2017-07-11T05:56:10.489Z,75
2017-07-11T05:57:10.239Z,80
2017-07-11T05:58:10.421Z,85
2017-07-11T05:59:10.103Z,85
2017-07-11T06:00:10.476Z,85
2017-07-11T06:01:10.168Z,85
2017-07-11T06:02:11.187Z,85
2017-07-11T06:03:10.487Z,90
2017-07-11T06:04:10.449Z,95
2017-07-11T06:05:10.430Z,100
2017-07-11T06:06:10.764Z,105
2017-07-11T06:07:10.434Z,110
2017-07-11T06:08:10.406Z,115
2017-07-11T06:09:10.930Z,120
2017-07-11T06:10:10.439Z,130
2017-07-11T06:11:10.109Z,135
2017-07-11T06:12:10.813Z,140
2017-07-11T06:13:10.636Z,145
2017-07-11T06:14:10.725Z,145
2017-07-11T06:15:10.834Z,145
2017-07-11T06:16:10.405Z,145
2017-07-11T06:17:10.483Z,145
2017-07-11T06:18:11.140Z,140
2017-07-11T06:19:10.767Z,135
2017-07-11T06:20:10.481Z,130
2017-07-11T06:21:10.088Z,130
2017-07-11T06:22:10.345Z,125
2017-07-11T06:23:10.383Z,125
2017-07-11T06:24:10.067Z,120
2017-07-11T06:25:11.062Z,120
2017-07-11T06:26:10.352Z,125
2017-07-11T06:27:10.481Z,120
2017-07-11T06:28:10.105Z,115
2017-07-11T06:29:10.819Z,115
2017-07-11T06:30:10.766Z,110
2017-07-11T06:31:10.729Z,110
2017-07-11T06:32:10.204Z,105
2017-07-11T06:33:11.532Z,105
2017-07-11T06:34:11.185Z,110
2017-07-11T06:35:10.707Z,110
2017-07-11T06:36:10.371Z,115
2017-07-11T06:37:11.078Z,120
2017-07-11T06:38:10.747Z,125
2017-07-11T06:39:10.445Z,130
2017-07-11T06:40:10.049Z,140
2017-07-11T06:41:11.058Z,145
2017-07-11T06:42:10.737Z,150
2017-07-11T06:43:10.345Z,155
2017-07-11T06:44:09.991Z,155
2017-07-11T06:45:11.046Z,155
2017-07-11T06:46:09.952Z,150
2017-07-11T06:47:10.669Z,145
2017-07-11T06:48:10.013Z,135
2017-07-11T06:49:10.061Z,115
2017-07-11T06:50:10.356Z,100
2017-07-11T06:51:10.022Z,100
2017-07-11T06:52:10.331Z,100
2017-07-11T06:53:09.973Z,110
2017-07-11T06:54:10.717Z,120
2017-07-11T06:55:11.086Z,130
2017-07-11T06:56:09.966Z,130
2017-07-11T06:57:10.021Z,130
2017-07-11T06:58:10.305Z,125
2017-07-11T06:59:10.290Z,125
2017-07-11T07:00:10.364Z,115
2017-07-11T07:01:10.383Z,110
2017-07-11T07:02:10.409Z,100
2017-07-11T07:03:10.304Z,90
2017-07-11T07:04:10.319Z,80
2017-07-11T07:05:10.407Z,75
2017-07-11T07:06:10.274Z,75
2017-07-11T07:07:09.928Z,75
2017-07-11T07:08:10.453Z,75
2017-07-11T07:09:10.041Z,75
2017-07-11T07:10:10.273Z,80
2017-07-11T07:11:10.617Z,85
2017-07-11T07:12:10.258Z,90
2017-07-11T07:13:10.295Z,95
2017-07-11T07:14:09.946Z,110
2017-07-11T07:15:11.260Z,110
2017-07-11T07:16:10.585Z,110
2017-07-11T07:17:10.748Z,105
2017-07-11T07:18:10.285Z,100
2017-07-11T07:19:11.250Z,90
2017-07-11T07:20:10.649Z,75
2017-07-11T07:21:09.903Z,65
2017-07-11T07:22:09.886Z,65
2017-07-11T07:23:10.222Z,60
2017-07-11T07:24:10.000Z,50
2017-07-11T07:25:10.259Z,45
2017-07-11T07:26:10.645Z,40
2017-07-11T07:27:09.931Z,50
2017-07-11T07:28:10.200Z,70
2017-07-11T07:29:10.231Z,90
2017-07-11T07:30:10.534Z,105
2017-07-11T07:31:10.206Z,150
2017-07-11T07:32:10.709Z,195
2017-07-11T07:33:11.039Z,210
2017-07-11T07:34:10.410Z,220
2017-07-11T07:35:10.192Z,210
2017-07-11T07:36:10.198Z,210
2017-07-11T07:37:09.936Z,205
2017-07-11T07:38:10.846Z,200
2017-07-11T07:39:10.592Z,200
2017-07-11T07:40:10.192Z,190
2017-07-11T07:41:10.296Z,185
2017-07-11T07:42:10.417Z,175
2017-07-11T07:43:10.414Z,170
2017-07-11T07:44:10.215Z,170
2017-07-11T07:45:10.603Z,165
2017-07-11T07:46:10.205Z,170
2017-07-11T07:47:10.576Z,170
2017-07-11T07:48:10.567Z,175
2017-07-11T07:49:10.711Z,165
2017-07-11T07:50:09.767Z,150
2017-07-11T07:51:10.251Z,145
2017-07-11T07:52:10.566Z,155
2017-07-11T07:53:09.807Z,165
2017-07-11T07:54:10.465Z,170
2017-07-11T07:55:10.180Z,180
2017-07-11T07:56:10.854Z,195
2017-07-11T07:57:10.563Z,190
2017-07-11T07:58:10.596Z,185
2017-07-11T07:59:10.890Z,175
2017-07-11T08:00:10.099Z,175
2017-07-11T08:01:10.305Z,170
2017-07-11T08:02:10.179Z,200
2017-07-11T08:03:10.210Z,225
2017-07-11T08:04:10.806Z,265
2017-07-11T08:05:10.499Z,295
2017-07-11T08:06:09.826Z,315
2017-07-11T08:07:09.843Z,320
2017-07-11T08:08:09.787Z,330
2017-07-11T08:09:09.878Z,335
2017-07-11T08:10:10.464Z,335
2017-07-11T08:11:09.781Z,335
2017-07-11T08:12:10.515Z,335
2017-07-11T08:13:09.766Z,335
2017-07-11T08:14:10.445Z,330
2017-07-11T08:15:10.120Z,325
2017-07-11T08:16:10.413Z,320
2017-07-11T08:17:09.747Z,320
2017-07-11T08:18:10.448Z,320
2017-07-11T08:19:10.117Z,325
2017-07-11T08:20:10.039Z,335
2017-07-11T08:21:10.400Z,350
2017-07-11T08:22:10.107Z,360
2017-07-11T08:23:10.148Z,370
2017-07-11T08:24:10.155Z,380
2017-07-11T08:25:10.460Z,385
2017-07-11T08:26:10.154Z,395
2017-07-11T08:27:10.638Z,405
2017-07-11T08:28:10.424Z,410
2017-07-11T08:29:10.125Z,420
2017-07-11T08:30:10.149Z,440
2017-07-11T08:31:10.460Z,460
2017-07-11T08:32:10.796Z,470
2017-07-11T08:33:09.722Z,475
2017-07-11T08:34:10.062Z,465
2017-07-11T08:35:09.771Z,460
2017-07-11T08:36:10.397Z,470
2017-07-11T08:37:09.702Z,400
2017-07-11T08:38:09.663Z,435
2017-07-11T08:39:10.427Z,440
2017-07-11T08:40:10.074Z,375
2017-07-11T08:41:10.712Z,380
2017-07-11T08:42:10.412Z,420
2017-07-11T08:43:10.056Z,415
2017-07-11T08:44:10.783Z,420
2017-07-11T08:45:10.099Z,430
2017-07-11T08:46:10.455Z,450
2017-07-11T08:47:10.078Z,450
2017-07-11T08:48:10.010Z,450
2017-07-11T08:49:10.097Z,475
2017-07-11T08:50:09.753Z,490
2017-07-11T08:51:09.758Z,500
2017-07-11T08:52:09.985Z,480
2017-07-11T08:53:10.107Z,510
2017-07-11T08:54:10.339Z,525
2017-07-11T08:55:10.107Z,535
2017-07-11T08:56:10.100Z,530
2017-07-11T08:57:09.696Z,510
2017-07-11T08:58:10.157Z,500
2017-07-11T08:59:10.049Z,505
2017-07-11T09:00:10.140Z,535
2017-07-11T09:01:09.660Z,525
2017-07-11T09:02:10.751Z,505
2017-07-11T09:03:10.113Z,485
2017-07-11T09:04:09.620Z,495
2017-07-11T09:05:10.747Z,550
2017-07-11T09:06:09.753Z,595
2017-07-11T09:07:09.763Z,615
2017-07-11T09:08:10.007Z,555
2017-07-11T09:09:10.418Z,500
2017-07-11T09:10:09.695Z,580
2017-07-11T09:11:10.700Z,625
2017-07-11T09:12:10.708Z,655
2017-07-11T09:13:10.406Z,670
2017-07-11T09:14:10.450Z,705
2017-07-11T09:15:10.393Z,735
2017-07-11T09:16:10.375Z,700
2017-07-11T09:17:09.709Z,690
2017-07-11T09:18:10.426Z,730
2017-07-11T09:19:10.059Z,720
2017-07-11T09:20:10.648Z,705
2017-07-11T09:21:10.038Z,665
2017-07-11T09:22:10.099Z,650
2017-07-11T09:23:10.454Z,690
2017-07-11T09:24:10.001Z,695
2017-07-11T09:25:10.001Z,690
2017-07-11T09:26:10.099Z,705
2017-07-11T09:27:10.529Z,725
2017-07-11T09:28:10.362Z,735
2017-07-11T09:29:10.487Z,745
2017-07-11T09:30:10.059Z,740
2017-07-11T09:31:10.154Z,730
2017-07-11T09:32:10.092Z,705
2017-07-11T09:33:10.107Z,680
2017-07-11T09:34:10.060Z,645
2017-07-11T09:35:10.237Z,590
2017-07-11T09:36:10.781Z,545
2017-07-11T09:37:10.562Z,495
2017-07-11T09:38:10.686Z,475
2017-07-11T09:39:10.517Z,450
2017-07-11T09:40:09.718Z,450
2017-07-11T09:41:10.485Z,470
2017-07-11T09:42:10.394Z,505
2017-07-11T09:43:10.146Z,510
2017-07-11T09:44:09.746Z,500
2017-07-11T09:45:11.262Z,490
2017-07-11T09:46:10.520Z,500
2017-07-11T09:47:10.497Z,495
2017-07-11T09:48:09.841Z,495
2017-07-11T09:49:10.486Z,485
2017-07-11T09:50:10.548Z,490
2017-07-11T09:51:09.776Z,500
2017-07-11T09:52:10.248Z,475
2017-07-11T09:53:09.773Z,450
2017-07-11T09:54:10.784Z,465
2017-07-11T09:55:10.611Z,460
2017-07-11T09:56:09.879Z,455
2017-07-11T09:57:09.882Z,460
2017-07-11T09:58:09.899Z,475
2017-07-11T09:59:10.174Z,510
2017-07-11T10:00:10.551Z,545
2017-07-11T10:01:10.650Z,495
2017-07-11T10:02:09.876Z,415
2017-07-11T10:03:10.232Z,425
2017-07-11T10:04:10.114Z,450
2017-07-11T10:05:10.512Z,515
2017-07-11T10:06:09.848Z,525
2017-07-11T10:07:10.257Z,530
2017-07-11T10:08:09.842Z,550
2017-07-11T10:09:10.440Z,590
2017-07-11T10:10:09.810Z,635
2017-07-11T10:11:10.604Z,560
2017-07-11T10:12:10.957Z,585
2017-07-11T10:13:10.156Z,615
2017-07-11T10:14:10.105Z,615
2017-07-11T10:15:09.802Z,565
2017-07-11T10:16:10.083Z,540
2017-07-11T10:17:10.648Z,535
2017-07-11T10:18:10.166Z,530
2017-07-11T10:19:09.799Z,505
2017-07-11T10:20:09.866Z,510
2017-07-11T10:21:10.539Z,490
2017-07-11T10:22:09.812Z,485
2017-07-11T10:23:10.618Z,535
2017-07-11T10:24:10.498Z,480
2017-07-11T10:25:10.333Z,440
2017-07-11T10:26:10.185Z,440
2017-07-11T10:27:10.304Z,565
2017-07-11T10:28:10.540Z,505
2017-07-11T10:29:10.694Z,520
2017-07-11T10:30:10.087Z,520
2017-07-11T10:31:10.151Z,490
2017-07-11T10:32:10.855Z,535
2017-07-11T10:33:10.821Z,515
2017-07-11T10:34:09.849Z,500
2017-07-11T10:35:11.294Z,480
2017-07-11T10:36:09.741Z,430
2017-07-11T10:37:10.094Z,450
2017-07-11T10:38:10.632Z,445
2017-07-11T10:39:10.348Z,535
2017-07-11T10:40:10.223Z,530
2017-07-11T10:41:10.155Z,475
2017-07-11T10:42:10.938Z,440
2017-07-11T10:43:10.570Z,385
2017-07-11T10:44:10.155Z,345
2017-07-11T10:45:10.671Z,360
2017-07-11T10:46:10.281Z,335
2017-07-11T10:47:09.972Z,270
2017-07-11T10:48:10.614Z,305
2017-07-11T10:49:10.234Z,350
2017-07-11T10:50:09.851Z,445
2017-07-11T10:51:10.532Z,505
2017-07-11T10:52:10.180Z,525
2017-07-11T10:53:10.989Z,495
2017-07-11T10:54:10.578Z,485
2017-07-11T10:55:10.509Z,445
2017-07-11T10:56:09.880Z,480
2017-07-11T10:57:10.210Z,420
2017-07-11T10:58:10.597Z,335
2017-07-11T10:59:09.937Z,415
2017-07-11T11:00:10.222Z,400
2017-07-11T11:01:10.648Z,350
2017-07-11T11:02:10.930Z,320
2017-07-11T11:03:10.244Z,305
2017-07-11T11:04:09.954Z,365
2017-07-11T11:05:10.365Z,425
2017-07-11T11:06:10.233Z,490
2017-07-11T11:07:10.528Z,520
2017-07-11T11:08:09.896Z,495
2017-07-11T11:09:10.281Z,415
2017-07-11T11:10:09.909Z,345
2017-07-11T11:11:10.239Z,320
2017-07-11T11:12:10.725Z,380
2017-07-11T11:13:10.312Z,360
2017-07-11T11:14:10.251Z,340
2017-07-11T11:15:10.284Z,300
2017-07-11T11:16:10.402Z,260
2017-07-11T11:17:11.002Z,265
2017-07-11T11:18:10.701Z,340
2017-07-11T11:19:10.218Z,425
2017-07-11T11:20:10.344Z,515
2017-07-11T11:21:10.340Z,545
2017-07-11T11:22:10.221Z,500
2017-07-11T11:23:09.961Z,425
2017-07-11T11:24:10.189Z,450
2017-07-11T11:25:11.075Z,510
2017-07-11T11:26:10.979Z,445
2017-07-11T11:27:10.379Z,365
2017-07-11T11:28:09.866Z,305
2017-07-11T11:29:09.949Z,260
2017-07-11T11:30:09.928Z,265
2017-07-11T11:31:10.691Z,300
2017-07-11T11:32:10.241Z,330
2017-07-11T11:33:10.585Z,300
2017-07-11T11:34:10.820Z,260
2017-07-11T11:35:10.341Z,245
2017-07-11T11:36:10.651Z,245
2017-07-11T11:37:10.287Z,235
2017-07-11T11:38:09.988Z,280
2017-07-11T11:39:10.557Z,285
2017-07-11T11:40:10.377Z,260
2017-07-11T11:41:10.378Z,270
2017-07-11T11:42:10.443Z,290
2017-07-11T11:43:10.382Z,330
2017-07-11T11:44:10.305Z,390
2017-07-11T11:45:10.336Z,470
2017-07-11T11:46:10.613Z,510
2017-07-11T11:47:10.704Z,450
2017-07-11T11:48:10.331Z,325
2017-07-11T11:49:10.112Z,270
2017-07-11T11:50:10.447Z,240
2017-07-11T11:51:10.706Z,220
2017-07-11T11:52:10.699Z,230
2017-07-11T11:53:10.717Z,245
2017-07-11T11:54:10.138Z,230
2017-07-11T11:55:10.327Z,185
2017-07-11T11:56:10.436Z,145
2017-07-11T11:57:10.484Z,130
2017-07-11T11:58:11.029Z,140
2017-07-11T11:59:10.395Z,160
2017-07-11T12:00:10.330Z,190
2017-07-11T12:01:10.459Z,215
2017-07-11T12:02:10.089Z,240
2017-07-11T12:03:10.231Z,265
2017-07-11T12:04:10.729Z,280
2017-07-11T12:05:10.793Z,280
2017-07-11T12:06:10.450Z,295
2017-07-11T12:07:10.346Z,305
2017-07-11T12:08:10.469Z,315
2017-07-11T12:09:11.025Z,320
2017-07-11T12:10:10.399Z,340
2017-07-11T12:11:11.358Z,370
2017-07-11T12:12:10.738Z,415
2017-07-11T12:13:10.404Z,455
2017-07-11T12:14:10.006Z,495
2017-07-11T12:15:11.015Z,515
2017-07-11T12:16:10.028Z,530
2017-07-11T12:17:10.347Z,540
2017-07-11T12:18:10.330Z,530
2017-07-11T12:19:10.115Z,530
2017-07-11T12:20:10.690Z,530
2017-07-11T12:21:10.089Z,545
2017-07-11T12:22:10.053Z,560
2017-07-11T12:23:10.012Z,580
2017-07-11T12:24:10.359Z,600
2017-07-11T12:25:10.822Z,610
2017-07-11T12:26:10.040Z,590
2017-07-11T12:27:10.424Z,555
2017-07-11T12:28:10.351Z,520
2017-07-11T12:29:10.840Z,520
2017-07-11T12:30:10.435Z,505
2017-07-11T12:31:10.021Z,490
2017-07-11T12:32:10.713Z,490
2017-07-11T12:33:10.676Z,505
2017-07-11T12:34:10.695Z,495
2017-07-11T12:35:10.383Z,470
2017-07-11T12:36:10.716Z,440
2017-07-11T12:37:10.075Z,405
2017-07-11T12:38:10.390Z,385
2017-07-11T12:39:10.365Z,370
2017-07-11T12:40:10.323Z,370
2017-07-11T12:41:10.302Z,400
2017-07-11T12:42:10.662Z,465
2017-07-11T12:43:10.540Z,490
2017-07-11T12:44:10.724Z,485
2017-07-11T12:45:09.995Z,490
2017-07-11T12:46:10.658Z,465
2017-07-11T12:47:11.112Z,490
2017-07-11T12:48:10.639Z,515
2017-07-11T12:49:10.800Z,545
2017-07-11T12:50:10.443Z,505
2017-07-11T12:51:10.099Z,595
2017-07-11T12:52:10.659Z,675
2017-07-11T12:53:10.423Z,605
2017-07-11T12:54:10.358Z,575
2017-07-11T12:55:10.468Z,475
2017-07-11T12:56:10.718Z,450
2017-07-11T12:57:10.036Z,440
2017-07-11T12:58:10.445Z,420
2017-07-11T12:59:10.048Z,405
2017-07-11T13:00:10.364Z,405
2017-07-11T13:01:10.441Z,405
2017-07-11T13:02:10.771Z,435
2017-07-11T13:03:11.086Z,450
2017-07-11T13:04:10.391Z,480
2017-07-11T13:05:10.013Z,485
2017-07-11T13:06:10.799Z,500
2017-07-11T13:07:10.692Z,480
2017-07-11T13:08:10.812Z,495
2017-07-11T13:09:10.462Z,545
2017-07-11T13:10:10.808Z,560
2017-07-11T13:11:10.416Z,535
2017-07-11T13:12:10.055Z,490
2017-07-11T13:13:10.827Z,520
2017-07-11T13:14:10.465Z,505
2017-07-11T13:15:11.071Z,475
2017-07-11T13:16:10.103Z,490
2017-07-11T13:17:10.697Z,505
2017-07-11T13:18:10.427Z,520
2017-07-11T13:19:10.465Z,550
2017-07-11T13:20:10.787Z,585
2017-07-11T13:21:10.391Z,615
2017-07-11T13:22:10.563Z,645
2017-07-11T13:23:10.070Z,595
2017-07-11T13:24:10.781Z,515
2017-07-11T13:25:10.737Z,440
2017-07-11T13:26:10.514Z,425
2017-07-11T13:27:11.075Z,470
2017-07-11T13:28:10.896Z,555
2017-07-11T13:29:10.489Z,620
2017-07-11T13:30:10.794Z,635
2017-07-11T13:31:10.497Z,630
2017-07-11T13:32:10.865Z,615
2017-07-11T13:33:10.459Z,595
2017-07-11T13:34:10.190Z,580
2017-07-11T13:35:10.986Z,605
2017-07-11T13:36:10.109Z,640
2017-07-11T13:37:10.512Z,655
2017-07-11T13:38:10.786Z,610
2017-07-11T13:39:10.145Z,580
2017-07-11T13:40:11.195Z,550
2017-07-11T13:41:10.504Z,500
2017-07-11T13:42:10.570Z,435
2017-07-11T13:43:10.721Z,410
2017-07-11T13:44:11.074Z,400
2017-07-11T13:45:10.802Z,400
2017-07-11T13:46:10.352Z,380
2017-07-11T13:47:11.053Z,335
2017-07-11T13:48:10.366Z,315
2017-07-11T13:49:10.042Z,335
2017-07-11T13:50:10.690Z,345
2017-07-11T13:51:10.371Z,355
2017-07-11T13:52:10.708Z,335
2017-07-11T13:53:10.366Z,330
2017-07-11T13:54:11.029Z,350
2017-07-11T13:55:10.385Z,365
2017-07-11T13:56:10.069Z,375
2017-07-11T13:57:10.046Z,370
2017-07-11T13:58:10.397Z,400
2017-07-11T13:59:10.751Z,480
2017-07-11T14:00:10.410Z,530
2017-07-11T14:01:10.052Z,530
2017-07-11T14:02:10.383Z,515
2017-07-11T14:03:10.381Z,470
2017-07-11T14:04:10.388Z,420
2017-07-11T14:05:10.064Z,380
2017-07-11T14:06:10.744Z,340